Time;durP1;ratioP1;P1;durP2;ratioP2;P2;SDS_P1;SDS_P2;PMS_P1;PMS_P2;Temp;Humidity;BMP_temperature;BMP_pressure;BME280_temperature;BME280_humidity;BME280_pressure;Samples;Min_cycle;Max_cycle;Signal;HPM_P1;HPM_P2
2023/10/14 00:03:17;;;;;;;11.20;6.20;;;;;;;15.05;100.00;98667.31;436430;1251;138794;-68
2023/10/14 00:13:20;;;;;;;11.50;6.30;;;;;;;15.03;100.00;98656.06;436319;1251;139052;-68
2023/10/14 00:23:24;;;;;;;8.00;5.10;;;;;;;15.07;100.00;98645.59;436172;1251;138972;-66
2023/10/14 00:33:27;;;;;;;8.80;5.90;;;;;;;15.13;100.00;98629.98;436414;1251;138571;-68
2023/10/14 00:43:30;;;;;;;7.00;5.40;;;;;;;15.12;100.00;98622.70;436110;1251;139764;-67
2023/10/14 00:53:37;;;;;;;8.80;5.70;;;;;;;15.12;99.86;98617.38;436736;1251;138826;-70
2023/10/14 01:03:40;;;;;;;8.10;5.20;;;;;;;15.14;99.65;98607.58;436205;1253;138350;-67
2023/10/14 01:13:44;;;;;;;14.40;6.70;;;;;;;15.18;99.33;98589.34;436004;1251;138744;-68
2023/10/14 01:23:58;;;;;;;10.30;6.10;;;;;;;15.15;98.87;98574.19;436208;1251;152825;-67
2023/10/14 01:34:04;;;;;;;7.50;4.90;;;;;;;15.06;98.59;98558.59;436227;1253;140875;-67
2023/10/14 01:44:09;;;;;;;7.90;5.90;;;;;;;14.98;98.45;98543.72;436030;1251;138326;-66
2023/10/14 01:54:12;;;;;;;12.00;5.30;;;;;;;14.91;98.42;98516.04;435819;1252;138580;-68
2023/10/14 02:04:15;;;;;;;10.10;4.90;;;;;;;14.90;98.39;98499.30;436159;1251;138730;-67
2023/10/14 02:14:22;;;;;;;12.30;5.30;;;;;;;14.91;98.21;98490.73;436530;1250;139557;-67
2023/10/14 02:24:27;;;;;;;8.30;5.10;;;;;;;14.95;98.11;98481.11;435967;1253;140578;-66
2023/10/14 02:34:30;;;;;;;9.00;5.30;;;;;;;15.01;97.82;98471.18;436178;1251;138710;-66
2023/10/14 02:44:44;;;;;;;7.10;4.50;;;;;;;15.09;97.38;98459.86;435854;1251;139632;-68
2023/10/14 02:54:54;;;;;;;12.10;6.70;;;;;;;15.06;96.84;98434.42;436456;1253;138431;-67
2023/10/14 03:05:20;;;;;;;8.70;4.60;;;;;;;15.03;96.51;98424.95;436332;1251;138882;-68
2023/10/14 03:15:23;;;;;;;8.30;4.60;;;;;;;14.97;95.97;98419.23;436544;1251;138276;-66
2023/10/14 03:25:27;;;;;;;10.00;6.10;;;;;;;14.88;95.74;98410.13;436253;1251;138639;-67
2023/10/14 03:35:32;;;;;;;10.40;5.70;;;;;;;14.85;95.70;98394.02;436705;1253;139404;-67
2023/10/14 03:45:45;;;;;;;11.00;5.90;;;;;;;14.84;95.35;98375.43;436389;1251;139681;-67
2023/10/14 03:55:50;;;;;;;7.80;4.80;;;;;;;14.87;95.29;98359.29;436586;1251;139243;-68
2023/10/14 04:05:59;;;;;;;8.40;4.90;;;;;;;14.91;94.95;98337.96;436877;1253;138732;-66
2023/10/14 04:16:02;;;;;;;8.90;5.10;;;;;;;14.92;94.67;98325.65;436591;1251;139708;-68
2023/10/14 04:26:11;;;;;;;11.10;5.80;;;;;;;14.83;94.30;98314.37;436118;1251;139144;-68
2023/10/14 04:36:36;;;;;;;12.20;5.40;;;;;;;14.77;94.37;98294.83;436059;1251;139225;-68
2023/10/14 04:46:54;;;;;;;13.20;6.90;;;;;;;14.69;94.17;98282.53;436520;1251;139732;-67
2023/10/14 04:56:58;;;;;;;8.40;5.20;;;;;;;14.66;94.34;98266.50;436524;1253;138703;-67
2023/10/14 05:07:05;;;;;;;14.80;7.00;;;;;;;14.71;94.40;98266.97;436408;1251;138441;-68
2023/10/14 05:17:16;;;;;;;9.50;6.90;;;;;;;14.78;94.38;98267.78;436425;1253;144140;-69
2023/10/14 05:27:21;;;;;;;10.60;6.20;;;;;;;14.81;94.27;98263.73;436389;1251;138944;-67
2023/10/14 05:37:24;;;;;;;13.90;6.80;;;;;;;15.00;94.36;98270.95;435983;1254;138570;-66
2023/10/14 05:47:27;;;;;;;9.20;6.80;;;;;;;15.31;94.22;98283.05;437730;1251;138803;-67
2023/10/14 05:57:30;;;;;;;10.50;6.60;;;;;;;15.75;94.07;98293.09;436242;1251;138610;-66
2023/10/14 06:07:34;;;;;;;9.90;5.90;;;;;;;17.68;94.09;98295.42;436002;1254;139716;-69
2023/10/14 06:17:39;;;;;;;8.80;6.80;;;;;;;21.01;90.61;98291.91;436324;1251;139081;-68
2023/10/14 06:27:45;;;;;;;10.50;6.10;;;;;;;24.10;84.98;98284.42;436641;1249;138596;-68
2023/10/14 06:37:48;;;;;;;10.70;7.60;;;;;;;26.63;78.16;98295.55;436863;1251;139091;-68
2023/10/14 06:47:56;;;;;;;7.90;6.80;;;;;;;29.17;73.42;98305.60;436979;1253;138265;-67
2023/10/14 06:57:59;;;;;;;8.70;5.40;;;;;;;31.90;67.32;98291.00;437590;1251;138441;-69
2023/10/14 07:08:03;;;;;;;7.10;5.50;;;;;;;33.70;61.27;98285.60;435868;1251;137986;-68
2023/10/14 07:18:08;;;;;;;7.00;5.00;;;;;;;35.03;54.30;98294.50;436337;1251;138164;-68
2023/10/14 07:28:13;;;;;;;7.80;5.50;;;;;;;36.52;46.81;98287.09;436230;1251;138145;-67
2023/10/14 07:38:17;;;;;;;15.30;5.30;;;;;;;37.28;42.45;98273.45;436575;1253;139491;-68
2023/10/14 07:48:20;;;;;;;6.50;5.90;;;;;;;36.56;40.50;98272.03;436224;1253;138546;-68
2023/10/14 07:58:23;;;;;;;;;;;;;;;36.51;38.65;98262.33;437372;1253;137783;-68
2023/10/14 08:08:30;;;;;;;6.30;5.20;;;;;;;32.83;38.14;98259.88;436018;1251;124934;-68
2023/10/14 08:18:33;;;;;;;7.60;5.50;;;;;;;28.83;40.40;98262.29;436342;1253;138997;-68
2023/10/14 08:28:36;;;;;;;8.40;5.60;;;;;;;25.78;43.91;98270.46;436610;1254;137919;-68
2023/10/14 08:38:40;;;;;;;10.30;6.00;;;;;;;24.87;46.47;98268.95;435865;1254;138411;-68
2023/10/14 08:48:43;;;;;;;7.20;5.00;;;;;;;24.02;48.05;98267.73;436008;1256;138501;-69
2023/10/14 08:58:46;;;;;;;8.70;4.70;;;;;;;23.00;49.50;98270.98;436821;1253;138850;-68
2023/10/14 09:08:51;;;;;;;6.70;5.90;;;;;;;21.96;51.62;98280.36;436069;1251;140100;-61
2023/10/14 09:19:02;;;;;;;7.60;4.70;;;;;;;21.31;53.57;98288.34;436133;1254;139191;-62
2023/10/14 09:29:09;;;;;;;8.20;4.70;;;;;;;20.83;55.38;98273.86;436369;1253;137900;-61
2023/10/14 09:39:13;;;;;;;;;;;;;;;20.52;56.30;98281.29;438275;1253;139129;-60
2023/10/14 09:49:17;;;;;;;8.20;5.30;;;;;;;20.83;56.92;98276.67;436694;1254;125193;-62
2023/10/14 09:59:22;;;;;;;10.30;4.80;;;;;;;21.71;56.67;98272.92;436556;1254;138269;-62
2023/10/14 10:10:01;;;;;;;6.30;4.50;;;;;;;22.27;55.61;98267.55;436375;1253;138141;-60
2023/10/14 10:20:12;;;;;;;9.30;4.50;;;;;;;22.63;54.64;98261.31;436285;1254;139045;-61
2023/10/14 10:30:17;;;;;;;7.30;4.40;;;;;;;22.49;54.03;98258.71;436583;1255;137865;-61
2023/10/14 10:40:22;;;;;;;7.40;4.70;;;;;;;22.53;54.29;98263.22;436510;1256;138394;-62
2023/10/14 10:50:28;;;;;;;7.50;4.80;;;;;;;22.41;54.34;98275.48;436548;1251;138793;-62
2023/10/14 11:00:31;;;;;;;4.90;4.00;;;;;;;22.10;54.91;98277.17;437034;1254;138505;-62
2023/10/14 11:10:38;;;;;;;7.60;4.70;;;;;;;21.79;55.54;98277.93;436726;1257;138895;-61
2023/10/14 11:20:45;;;;;;;7.60;4.80;;;;;;;21.62;56.04;98285.16;437318;1251;138500;-62
2023/10/14 11:30:48;;;;;;;6.50;4.40;;;;;;;21.64;56.74;98294.13;436663;1255;139168;-62
2023/10/14 11:40:52;;;;;;;5.40;4.10;;;;;;;21.90;56.72;98292.95;436586;1253;138866;-63
2023/10/14 11:50:58;;;;;;;8.40;4.60;;;;;;;22.06;56.51;98293.86;436565;1251;138106;-63
2023/10/14 12:01:04;;;;;;;6.90;5.40;;;;;;;22.07;56.59;98300.84;436324;1251;138538;-61
2023/10/14 12:11:08;;;;;;;8.30;4.20;;;;;;;22.22;56.52;98300.36;436554;1252;139091;-64
2023/10/14 12:21:11;;;;;;;7.70;4.30;;;;;;;22.04;56.14;98314.92;436090;1253;137999;-63
2023/10/14 12:31:14;;;;;;;6.00;5.10;;;;;;;21.64;56.61;98317.88;436067;1254;138825;-64
2023/10/14 12:41:21;;;;;;;8.00;3.70;;;;;;;21.30;57.50;98326.21;436443;1254;138019;-64
2023/10/14 12:51:30;;;;;;;3.30;2.10;;;;;;;20.84;57.68;98349.16;436772;1252;138071;-63
2023/10/14 13:01:33;;;;;;;5.40;2.80;;;;;;;20.27;58.41;98364.91;436191;1254;139508;-63
2023/10/14 13:11:39;;;;;;;11.70;3.00;;;;;;;19.62;60.07;98404.04;436414;1251;139919;-63
2023/10/14 13:21:42;;;;;;;2.50;1.10;;;;;;;19.05;61.82;98424.81;436371;1251;138115;-63
2023/10/14 13:31:49;;;;;;;1.30;1.20;;;;;;;18.45;63.61;98444.98;436072;1252;138070;-64
2023/10/14 13:41:53;;;;;;;1.60;1.20;;;;;;;17.87;65.95;98458.72;436384;1251;140393;-64
2023/10/14 13:51:58;;;;;;;4.90;1.40;;;;;;;17.34;68.44;98469.06;437557;1251;140084;-65
2023/10/14 14:02:03;;;;;;;2.40;1.20;;;;;;;16.97;70.89;98481.00;436835;1251;139153;-64
2023/10/14 14:12:07;;;;;;;4.50;2.50;;;;;;;16.61;73.36;98476.13;436566;1254;140157;-64
2023/10/14 14:22:11;;;;;;;5.80;2.90;;;;;;;16.32;75.63;98475.70;436768;1254;138806;-65
2023/10/14 14:32:15;;;;;;;5.50;2.80;;;;;;;16.10;78.17;98490.52;436258;1251;139280;-63
2023/10/14 14:42:21;;;;;;;2.80;1.10;;;;;;;16.00;79.31;98500.68;436376;1251;139312;-64
2023/10/14 14:52:26;;;;;;;4.20;0.90;;;;;;;15.59;77.29;98545.23;436061;1252;138608;-64
2023/10/14 15:02:31;;;;;;;2.00;0.60;;;;;;;15.15;77.46;98548.73;435929;1251;139073;-63
2023/10/14 15:12:35;;;;;;;3.70;1.20;;;;;;;14.71;78.11;98572.35;435570;1252;139656;-63
2023/10/14 15:22:38;;;;;;;2.40;2.20;;;;;;;14.40;78.99;98561.95;436230;1254;138672;-63
2023/10/14 15:32:44;;;;;;;1.60;1.50;;;;;;;14.17;80.03;98584.95;436520;1251;138623;-69
2023/10/14 15:42:50;;;;;;;1.80;1.60;;;;;;;13.99;81.02;98582.42;436939;1254;139285;-65
2023/10/14 15:52:54;;;;;;;1.80;1.60;;;;;;;13.72;81.79;98603.14;436086;1254;139772;-65
2023/10/14 16:03:00;;;;;;;2.10;1.80;;;;;;;13.42;82.88;98613.98;436659;1253;140349;-66
2023/10/14 16:13:05;;;;;;;1.70;1.50;;;;;;;13.19;84.28;98631.16;436358;1251;139836;-65
2023/10/14 16:23:08;;;;;;;5.20;2.10;;;;;;;13.03;85.39;98649.64;436620;1251;139104;-66
2023/10/14 16:33:12;;;;;;;2.30;2.10;;;;;;;12.76;86.11;98658.66;436554;1251;141195;-67
2023/10/14 16:43:15;;;;;;;3.90;2.40;;;;;;;12.33;87.22;98668.48;436343;1253;138934;-65
2023/10/14 16:53:18;;;;;;;4.20;3.80;;;;;;;11.92;89.02;98688.25;435962;1253;139371;-65
2023/10/14 17:03:22;;;;;;;5.60;3.20;;;;;;;11.60;90.50;98696.13;436532;1253;138723;-67
2023/10/14 17:13:26;;;;;;;5.00;3.50;;;;;;;11.29;91.87;98713.21;436214;1251;139176;-66
2023/10/14 17:23:31;;;;;;;4.50;4.00;;;;;;;11.07;93.26;98703.39;436526;1251;140999;-65
2023/10/14 17:33:36;;;;;;;5.70;5.00;;;;;;;10.95;94.64;98723.40;436802;1251;138947;-65
2023/10/14 17:43:40;;;;;;;6.90;6.10;;;;;;;10.77;95.40;98718.35;436647;1251;138741;-66
2023/10/14 17:53:47;;;;;;;6.40;5.70;;;;;;;10.62;96.59;98737.70;436857;1250;138998;-66
2023/10/14 18:03:55;;;;;;;9.00;5.80;;;;;;;10.62;97.98;98734.73;437009;1253;139902;-65
2023/10/14 18:14:00;;;;;;;11.50;7.50;;;;;;;10.62;98.81;98756.26;436523;1249;139951;-66
2023/10/14 18:24:03;;;;;;;11.50;9.40;;;;;;;10.63;99.55;98765.45;437489;1250;141205;-66
2023/10/14 18:34:06;;;;;;;11.60;9.20;;;;;;;10.69;99.98;98772.54;437374;1251;139186;-66
2023/10/14 18:44:28;;;;;;;10.60;8.40;;;;;;;10.73;100.00;98777.44;421213;1298;600622;-65
2023/10/14 18:54:33;;;;;;;8.00;6.80;;;;;;;10.72;100.00;98780.50;431889;1270;225608;-67
2023/10/14 19:04:40;;;;;;;10.40;7.30;;;;;;;10.70;100.00;98805.21;432356;1268;141261;-66
2023/10/14 19:14:47;;;;;;;6.40;5.30;;;;;;;10.64;100.00;98800.52;432104;1270;138568;-65
2023/10/14 19:24:55;;;;;;;7.60;4.80;;;;;;;10.62;100.00;98804.58;431916;1270;139634;-65
2023/10/14 19:35:02;;;;;;;6.20;4.80;;;;;;;10.64;100.00;98796.33;432099;1269;138772;-66
2023/10/14 19:45:10;;;;;;;5.40;3.40;;;;;;;10.65;100.00;98780.67;432883;1269;140043;-65
2023/10/14 19:55:22;;;;;;;4.10;3.60;;;;;;;10.64;100.00;98791.07;433069;1265;138608;-65
2023/10/14 20:05:35;;;;;;;4.90;3.80;;;;;;;10.65;100.00;98798.07;432911;1266;138890;-66
2023/10/14 20:15:42;;;;;;;7.40;3.80;;;;;;;10.63;100.00;98829.55;433117;1266;139370;-66
2023/10/14 20:25:49;;;;;;;8.00;3.90;;;;;;;10.65;100.00;98820.96;432967;1265;139075;-65
2023/10/14 20:35:56;;;;;;;5.10;3.20;;;;;;;10.69;99.98;98839.63;432955;1261;139374;-66
2023/10/14 20:46:08;;;;;;;6.10;3.40;;;;;;;10.73;99.51;98833.99;433547;1264;138195;-65
2023/10/14 20:56:15;;;;;;;11.80;4.00;;;;;;;10.75;98.66;98843.13;433720;1260;138413;-65
2023/10/14 21:06:22;;;;;;;9.10;3.90;;;;;;;10.70;97.67;98875.36;433279;1264;138640;-65
2023/10/14 21:16:28;;;;;;;6.30;3.20;;;;;;;10.63;96.86;98906.68;433389;1264;138327;-65
2023/10/14 21:26:38;;;;;;;8.10;5.40;;;;;;;10.46;95.99;98905.17;432711;1264;139644;-64
2023/10/14 21:36:44;;;;;;;7.70;4.50;;;;;;;10.16;95.35;98906.60;433139;1265;138649;-66
2023/10/14 21:46:50;;;;;;;6.00;2.90;;;;;;;9.83;94.76;98910.35;432741;1265;138576;-64
2023/10/14 21:56:55;;;;;;;6.10;2.40;;;;;;;9.50;94.27;98915.84;432842;1266;139986;-65
2023/10/14 22:07:02;;;;;;;8.10;3.40;;;;;;;9.12;94.11;98919.11;433005;1265;140174;-67
2023/10/14 22:17:08;;;;;;;12.90;4.50;;;;;;;8.76;94.41;98916.17;433213;1260;139356;-64
2023/10/14 22:27:14;;;;;;;7.00;3.20;;;;;;;8.43;94.56;98924.42;433026;1264;138602;-65
2023/10/14 22:37:20;;;;;;;8.10;3.00;;;;;;;8.13;95.03;98944.48;432983;1265;140739;-64
2023/10/14 22:47:42;;;;;;;7.20;3.00;;;;;;;7.86;95.24;98937.95;432847;1262;138271;-64
2023/10/14 22:57:48;;;;;;;6.00;2.90;;;;;;;7.67;95.78;98941.60;433029;1264;140116;-65
2023/10/14 23:07:55;;;;;;;7.50;3.60;;;;;;;7.49;95.70;98947.59;433365;1263;139423;-65
2023/10/14 23:18:03;;;;;;;8.50;3.10;;;;;;;7.27;95.94;98951.50;433064;1265;138479;-65
2023/10/14 23:28:09;;;;;;;4.50;2.40;;;;;;;7.11;96.21;98953.35;433277;1264;139221;-66
2023/10/14 23:38:15;;;;;;;6.40;2.80;;;;;;;6.98;96.40;98956.17;432842;1262;139498;-65
2023/10/14 23:48:23;;;;;;;10.70;2.90;;;;;;;6.89;96.88;98959.83;433133;1262;139690;-65
2023/10/14 23:58:30;;;;;;;5.40;2.70;;;;;;;6.80;96.93;98954.14;433178;1264;138463;-65
